Time;durP1;ratioP1;P1;durP2;ratioP2;P2;SDS_P1;SDS_P2;PMS_P1;PMS_P2;Temp;Humidity;BMP_temperature;BMP_pressure;BME280_temperature;BME280_humidity;BME280_pressure;Samples;Min_cycle;Max_cycle;Signal;HPM_P1;HPM_P2
2021/03/04 00:01:40;;;;;;;27.60;18.08;;;;;;;11.85;35.92;101931.06;5071108;28;20044;-68
2021/03/04 00:04:07;;;;;;;30.38;19.52;;;;;;;11.84;35.84;101933.91;5070647;28;20041;-68
2021/03/04 00:06:34;;;;;;;32.50;20.25;;;;;;;11.82;35.94;101927.66;5071495;28;20064;-68
2021/03/04 00:09:02;;;;;;;27.77;18.17;;;;;;;11.79;35.99;101926.03;5070049;28;20739;-68
2021/03/04 00:11:31;;;;;;;30.33;18.95;;;;;;;11.81;36.11;101926.78;5071236;28;20098;-68
2021/03/04 00:13:59;;;;;;;30.38;19.83;;;;;;;11.76;35.84;101915.31;5064582;28;20184;-68
2021/03/04 00:16:27;;;;;;;26.85;17.05;;;;;;;11.75;36.23;101919.03;5069801;28;20502;-68
2021/03/04 00:18:54;;;;;;;29.23;18.52;;;;;;;11.74;36.16;101919.13;5070059;28;20036;-68
2021/03/04 00:21:22;;;;;;;31.55;19.33;;;;;;;11.73;36.11;101931.09;5067143;28;20508;-68
2021/03/04 00:23:51;;;;;;;31.20;19.30;;;;;;;11.72;36.29;101932.06;5068786;28;20082;-68
2021/03/04 00:26:18;;;;;;;28.17;19.30;;;;;;;11.70;36.32;101921.22;5067149;28;20083;-68
2021/03/04 00:28:47;;;;;;;29.17;18.67;;;;;;;11.71;36.36;101928.47;5070012;28;20040;-68
2021/03/04 00:31:15;;;;;;;27.65;18.48;;;;;;;11.70;36.38;101918.47;5067106;28;20094;-68
2021/03/04 00:33:43;;;;;;;29.48;19.13;;;;;;;11.69;36.57;101913.13;5069862;28;20036;-68
2021/03/04 00:36:10;;;;;;;32.85;19.73;;;;;;;11.68;36.58;101908.66;5066349;28;20036;-68
2021/03/04 00:38:38;;;;;;;37.60;22.52;;;;;;;11.66;36.47;101909.63;5068717;28;20047;-68
2021/03/04 00:41:05;;;;;;;34.63;21.50;;;;;;;11.65;36.53;101907.00;5066213;28;20387;-68
2021/03/04 00:43:33;;;;;;;31.00;18.05;;;;;;;11.62;36.68;101901.72;5070681;28;20037;-68
2021/03/04 00:46:01;;;;;;;30.23;19.20;;;;;;;11.61;36.73;101909.06;5065875;28;20040;-68
2021/03/04 00:48:31;;;;;;;29.20;18.83;;;;;;;11.58;36.64;101912.06;5070353;28;20119;-68
2021/03/04 00:50:58;;;;;;;28.13;17.23;;;;;;;11.57;36.71;101906.69;5065421;28;20041;-68
2021/03/04 00:53:27;;;;;;;30.95;19.65;;;;;;;11.55;36.63;101897.69;5069026;28;20136;-68
2021/03/04 00:55:54;;;;;;;27.23;18.17;;;;;;;11.53;36.73;101886.84;5066301;28;20138;-68
2021/03/04 00:58:21;;;;;;;31.38;18.08;;;;;;;11.53;36.76;101894.19;5070468;28;20037;-68
2021/03/04 01:00:49;;;;;;;29.83;18.25;;;;;;;11.51;36.73;101896.19;5065559;28;20093;-68
2021/03/04 01:03:17;;;;;;;24.98;16.23;;;;;;;11.52;36.96;101890.59;5070548;28;20044;-68
2021/03/04 01:05:44;;;;;;;29.23;17.90;;;;;;;11.49;36.87;101893.56;5067875;28;20041;-68
2021/03/04 01:08:12;;;;;;;28.42;17.02;;;;;;;11.48;37.07;101885.44;5070307;28;20047;-68
2021/03/04 01:10:41;;;;;;;28.98;19.25;;;;;;;11.50;37.08;101891.69;5064794;28;20416;-68
2021/03/04 01:13:10;;;;;;;29.13;18.10;;;;;;;11.47;37.16;101892.78;5070413;28;20048;-68
2021/03/04 01:15:38;;;;;;;29.33;18.38;;;;;;;11.47;37.42;101886.44;5069612;28;20045;-68
2021/03/04 01:18:26;;;;;;;28.98;17.85;;;;;;;11.47;37.22;101886.44;5069717;28;20047;-68
2021/03/04 01:20:54;;;;;;;32.00;18.50;;;;;;;11.46;37.14;101879.19;5065669;28;20483;-68
2021/03/04 01:23:21;;;;;;;30.48;19.80;;;;;;;11.45;37.37;101872.84;5069961;28;20444;-68
2021/03/04 01:25:52;;;;;;;29.88;18.80;;;;;;;11.45;37.30;101875.56;5066929;28;20043;-68
2021/03/04 01:28:20;;;;;;;28.35;17.73;;;;;;;11.44;37.51;101870.25;5070067;28;20040;-68
2021/03/04 01:30:47;;;;;;;35.17;20.25;;;;;;;11.43;37.17;101861.13;5067388;28;20052;-68
2021/03/04 01:33:18;;;;;;;30.40;19.02;;;;;;;11.41;37.46;101860.38;5062519;28;20043;-68
2021/03/04 01:35:47;;;;;;;32.13;19.73;;;;;;;11.42;37.55;101866.72;5067538;28;20394;-68
2021/03/04 01:38:15;;;;;;;29.73;17.92;;;;;;;11.39;37.30;101855.97;5060959;28;20048;-68
2021/03/04 01:40:44;;;;;;;27.83;18.33;;;;;;;11.37;37.52;101868.91;5062134;28;20119;-68
2021/03/04 01:43:13;;;;;;;29.48;18.67;;;;;;;11.37;37.45;101863.44;5069716;28;20040;-68
2021/03/04 01:45:41;;;;;;;31.10;19.08;;;;;;;11.35;37.35;101871.78;5067894;28;20040;-68
2021/03/04 01:48:12;;;;;;;30.38;18.52;;;;;;;11.35;37.58;101866.31;5067434;28;20041;-68
2021/03/04 01:50:43;;;;;;;26.60;18.05;;;;;;;11.34;37.92;101867.28;5068505;28;20028;-68
2021/03/04 01:53:15;;;;;;;30.83;19.45;;;;;;;11.35;37.59;101865.44;5066910;28;20047;-68
2021/03/04 01:55:46;;;;;;;32.50;20.10;;;;;;;11.32;37.82;101858.31;5084819;28;20141;-68
2021/03/04 01:58:17;;;;;;;31.02;20.13;;;;;;;11.32;37.68;101850.09;5066273;28;20048;-68
2021/03/04 02:00:44;;;;;;;29.65;19.55;;;;;;;11.32;37.68;101846.47;5081611;28;20037;-68
2021/03/04 02:03:12;;;;;;;31.73;20.60;;;;;;;11.32;37.97;101832.78;5068843;28;20048;-68
2021/03/04 02:05:40;;;;;;;32.90;20.30;;;;;;;11.32;38.03;101830.03;5068696;28;20060;-67
2021/03/04 02:08:16;;;;;;;31.65;20.13;;;;;;;11.34;38.67;101819.84;5068746;28;20059;-68
2021/03/04 02:10:49;;;;;;;29.73;18.52;;;;;;;11.33;38.50;101829.06;5068085;28;20135;-68
2021/03/04 02:13:27;;;;;;;31.83;20.88;;;;;;;11.33;38.82;101829.94;5066582;28;20515;-68
2021/03/04 02:15:59;;;;;;;29.38;19.85;;;;;;;11.33;38.58;101826.31;5068870;28;20052;-68
2021/03/04 02:22:53;;;;;;;;;;;;;;;10.99;38.91;101816.97;5065345;28;20113;-68
2021/03/04 02:25:30;;;;;;;27.08;17.60;;;;;;;11.23;38.64;101810.56;5067291;28;20008;-68
2021/03/04 02:28:00;;;;;;;30.67;19.50;;;;;;;11.27;38.94;101809.34;5068571;28;20432;-68
2021/03/04 02:30:33;;;;;;;33.70;20.40;;;;;;;11.29;38.85;101814.69;5068083;28;20029;-68
2021/03/04 02:33:07;;;;;;;29.17;19.95;;;;;;;11.29;38.96;101811.97;5068426;28;20036;-68
2021/03/04 02:35:35;;;;;;;27.75;17.50;;;;;;;11.27;38.68;101816.69;5068575;28;20536;-68
2021/03/04 02:38:07;;;;;;;30.33;19.75;;;;;;;11.29;38.87;101812.84;5068190;28;20048;-68
2021/03/04 02:40:38;;;;;;;31.10;20.48;;;;;;;11.27;38.83;101813.97;5063607;28;20060;-68
2021/03/04 02:43:11;;;;;;;30.83;20.30;;;;;;;11.27;39.18;101805.75;5064322;28;20044;-68
2021/03/04 02:45:39;;;;;;;32.97;19.45;;;;;;;11.26;38.80;101804.88;5071642;28;20041;-68
2021/03/04 02:48:07;;;;;;;30.95;18.95;;;;;;;11.28;38.96;101810.19;5072201;28;20385;-68
2021/03/04 02:50:35;;;;;;;30.33;19.20;;;;;;;11.27;38.75;101797.53;5072516;28;20044;-68
2021/03/04 02:53:03;;;;;;;34.05;21.08;;;;;;;11.27;38.61;101786.56;5068482;28;20045;-68
2021/03/04 02:55:33;;;;;;;35.85;22.23;;;;;;;11.27;38.85;101779.22;5067306;28;20071;-68
2021/03/04 02:58:02;;;;;;;32.00;20.33;;;;;;;11.26;38.91;101776.59;5067986;28;20060;-68
2021/03/04 03:00:30;;;;;;;35.95;22.15;;;;;;;11.25;39.03;101772.97;5067828;28;20029;-68
2021/03/04 03:03:01;;;;;;;31.90;20.50;;;;;;;11.24;38.89;101768.50;5066710;28;20482;-68
2021/03/04 03:05:33;;;;;;;34.15;21.40;;;;;;;11.23;39.11;101771.34;5071683;28;20041;-68
2021/03/04 03:08:00;;;;;;;32.00;21.13;;;;;;;11.20;38.68;101771.56;5071410;28;20044;-68
2021/03/04 03:10:30;;;;;;;31.67;19.20;;;;;;;11.22;39.08;101777.81;5070034;28;20032;-68
2021/03/04 03:13:00;;;;;;;33.42;21.52;;;;;;;11.19;39.00;101767.97;5073360;28;20044;-68
2021/03/04 03:15:28;;;;;;;30.80;19.70;;;;;;;11.18;39.02;101765.34;5068852;28;20071;-68
2021/03/04 03:17:56;;;;;;;32.58;20.48;;;;;;;11.17;38.93;101772.69;5070342;28;20549;-68
2021/03/04 03:20:25;;;;;;;31.58;19.85;;;;;;;11.17;39.08;101764.47;5070599;28;20418;-68
2021/03/04 03:22:53;;;;;;;35.08;21.23;;;;;;;11.16;39.02;101757.25;5070401;28;20493;-68
2021/03/04 03:25:21;;;;;;;34.58;21.27;;;;;;;11.15;39.25;101752.75;5071495;28;20157;-68
2021/03/04 03:27:48;;;;;;;33.33;20.83;;;;;;;11.14;39.12;101750.13;5085276;28;20057;-68
2021/03/04 03:30:18;;;;;;;39.78;24.38;;;;;;;11.16;39.27;101745.41;5070540;28;20119;-68
2021/03/04 03:32:49;;;;;;;40.03;23.83;;;;;;;11.13;39.21;101729.19;5068090;28;20040;-68
2021/03/04 03:35:18;;;;;;;34.15;22.90;;;;;;;11.12;39.17;101730.19;5064753;28;20044;-68
2021/03/04 03:37:47;;;;;;;36.45;21.83;;;;;;;11.08;39.02;101724.06;5067695;28;20064;-68
2021/03/04 03:40:16;;;;;;;38.75;23.55;;;;;;;11.06;39.07;101717.81;5067526;28;20554;-68
2021/03/04 03:42:46;;;;;;;38.95;22.58;;;;;;;11.01;38.92;101714.56;5071230;28;20037;-68
2021/03/04 03:45:16;;;;;;;33.38;21.63;;;;;;;11.01;39.12;101716.44;5070975;28;20507;-68
2021/03/04 03:47:46;;;;;;;34.38;20.38;;;;;;;10.96;39.16;101716.75;5071295;28;20067;-68
2021/03/04 03:50:25;;;;;;;34.75;20.42;;;;;;;10.93;39.00;101721.59;5070605;28;20504;-68
2021/03/04 03:52:57;;;;;;;32.42;20.23;;;;;;;10.89;39.17;101729.16;5067263;28;20070;-68
2021/03/04 03:55:29;;;;;;;32.55;19.75;;;;;;;10.85;39.09;101727.66;5069518;28;20040;-68
2021/03/04 03:58:18;;;;;;;29.58;19.45;;;;;;;10.84;39.20;101724.03;5067726;28;20049;-68
2021/03/04 04:01:06;;;;;;;32.10;21.40;;;;;;;10.82;39.41;101719.63;5072404;28;20521;-68
2021/03/04 04:03:56;;;;;;;31.42;20.10;;;;;;;10.81;39.33;101726.97;5074620;28;20681;-68
2021/03/04 04:06:44;;;;;;;34.35;20.73;;;;;;;10.79;39.22;101717.09;5073668;28;20072;-68
2021/03/04 04:09:34;;;;;;;36.05;20.40;;;;;;;10.78;39.12;101720.84;5068052;28;20053;-68
2021/03/04 04:12:21;;;;;;;36.00;20.90;;;;;;;10.76;39.33;101720.09;5074336;28;20068;-68
2021/03/04 04:15:10;;;;;;;32.88;19.45;;;;;;;10.76;39.23;101726.44;5073247;28;20059;-68
2021/03/04 04:17:59;;;;;;;30.15;19.92;;;;;;;10.76;39.44;101726.44;5073353;28;20091;-68
2021/03/04 04:21:05;;;;;;;32.50;20.17;;;;;;;10.73;39.67;101717.56;5065922;28;20577;-68
2021/03/04 04:23:53;;;;;;;28.70;18.55;;;;;;;10.73;39.21;101721.16;5069971;28;20048;-68
2021/03/04 04:26:40;;;;;;;31.40;19.75;;;;;;;10.71;39.39;101709.47;5073240;28;20510;-68
2021/03/04 04:29:27;;;;;;;31.77;19.77;;;;;;;10.71;39.58;101697.63;5063263;28;20052;-68
2021/03/04 04:32:15;;;;;;;31.52;19.95;;;;;;;10.70;39.52;101696.75;5073755;28;20051;-67
2021/03/04 04:35:03;;;;;;;34.53;19.88;;;;;;;10.72;39.43;101699.38;5068272;28;20575;-68
2021/03/04 04:37:39;;;;;;;31.45;19.48;;;;;;;10.70;39.57;101698.66;5066146;28;20046;-68
2021/03/04 04:40:09;;;;;;;32.35;20.25;;;;;;;10.73;39.71;101690.19;5066511;28;20044;-68
2021/03/04 04:42:56;;;;;;;30.52;19.52;;;;;;;10.69;39.98;101685.94;5072933;28;20060;-68
2021/03/04 04:45:44;;;;;;;31.80;19.38;;;;;;;10.69;39.54;101686.81;5071139;28;20102;-68
2021/03/04 04:48:32;;;;;;;34.63;20.05;;;;;;;10.69;39.86;101685.94;5073255;28;20444;-68
2021/03/04 04:51:34;;;;;;;31.08;19.02;;;;;;;10.68;39.76;101679.59;5072648;28;20431;-68
2021/03/04 04:54:21;;;;;;;34.58;22.42;;;;;;;10.68;39.67;101670.50;5068950;28;20044;-68
2021/03/04 04:57:11;;;;;;;37.83;22.38;;;;;;;10.67;39.61;101666.91;5072239;28;20055;-68
2021/03/04 04:59:58;;;;;;;32.75;20.30;;;;;;;10.64;39.54;101660.78;5065364;28;20053;-68
2021/03/04 05:02:29;;;;;;;35.78;21.80;;;;;;;10.61;39.59;101656.41;5086364;28;20044;-68
2021/03/04 05:05:17;;;;;;;30.42;18.60;;;;;;;10.59;39.56;101665.72;5068649;28;20048;-68
2021/03/04 05:08:05;;;;;;;27.42;17.35;;;;;;;10.55;39.87;101656.84;5067189;28;20117;-68
2021/03/04 05:10:52;;;;;;;33.35;19.23;;;;;;;10.51;39.75;101653.47;5068129;28;20072;-67
2021/03/04 05:13:40;;;;;;;30.23;18.25;;;;;;;10.51;39.80;101648.00;5072778;28;20075;-68
2021/03/04 05:16:27;;;;;;;28.50;17.23;;;;;;;10.48;39.83;101650.09;5068924;28;20136;-68
2021/03/04 05:19:15;;;;;;;27.33;17.02;;;;;;;10.46;39.67;101660.25;5069660;28;20143;-68
2021/03/04 05:22:02;;;;;;;28.65;17.27;;;;;;;10.44;39.72;101665.00;5066135;28;20124;-68
2021/03/04 05:24:49;;;;;;;26.60;16.10;;;;;;;10.42;39.86;101656.88;5069156;28;20041;-68
2021/03/04 05:27:36;;;;;;;27.65;16.15;;;;;;;10.41;39.97;101651.53;5068307;28;20040;-68
2021/03/04 05:30:26;;;;;;;30.40;17.83;;;;;;;10.43;39.91;101657.75;5069573;28;20041;-68
2021/03/04 05:33:13;;;;;;;30.58;18.50;;;;;;;10.39;40.08;101642.56;5066763;28;20124;-68
2021/03/04 05:36:01;;;;;;;26.23;14.93;;;;;;;10.39;39.88;101642.56;5067116;28;20044;-68
2021/03/04 05:38:48;;;;;;;22.25;14.15;;;;;;;10.37;39.91;101642.66;5059849;28;20041;-69
2021/03/04 05:41:35;;;;;;;27.25;15.40;;;;;;;10.38;39.56;101646.28;5066824;28;20044;-69
2021/03/04 05:44:23;;;;;;;27.05;15.90;;;;;;;10.37;39.97;101636.34;5068342;28;20071;-69
2021/03/04 05:47:12;;;;;;;29.77;16.60;;;;;;;10.38;39.90;101638.94;5069215;28;20056;-69
2021/03/04 05:50:02;;;;;;;28.98;17.25;;;;;;;10.38;40.11;101636.19;5063432;28;20376;-69
2021/03/04 05:52:54;;;;;;;26.30;15.80;;;;;;;10.37;39.94;101634.44;5066304;28;20040;-68
2021/03/04 05:55:44;;;;;;;26.50;15.07;;;;;;;10.39;40.15;101628.88;5069844;28;20128;-69
2021/03/04 05:58:23;;;;;;;28.60;16.42;;;;;;;10.38;39.97;101622.53;5071400;28;20041;-69
2021/03/04 06:00:55;;;;;;;26.48;16.48;;;;;;;10.39;40.07;101626.13;5068894;28;20385;-68
2021/03/04 06:03:25;;;;;;;29.10;17.55;;;;;;;10.39;39.93;101628.88;5065085;28;20040;-69
2021/03/04 06:05:52;;;;;;;24.63;15.50;;;;;;;10.39;40.09;101631.59;5064650;28;20052;-69
2021/03/04 06:08:21;;;;;;;27.13;16.25;;;;;;;10.39;40.15;101637.97;5052774;28;20127;-69
2021/03/04 06:10:51;;;;;;;26.23;15.95;;;;;;;10.38;39.94;101643.53;5050834;28;20067;-69
2021/03/04 06:13:19;;;;;;;24.20;15.13;;;;;;;10.38;40.15;101638.06;5052356;28;20045;-69
2021/03/04 06:15:47;;;;;;;24.88;14.95;;;;;;;10.38;39.97;101646.28;5049677;28;20057;-69
2021/03/04 06:18:18;;;;;;;26.42;14.77;;;;;;;10.36;39.81;101645.53;5049902;28;20787;-68
2021/03/04 06:20:47;;;;;;;25.95;15.70;;;;;;;10.37;40.04;101655.50;5046652;28;20040;-68
2021/03/04 06:23:15;;;;;;;28.45;15.80;;;;;;;10.36;40.30;101672.88;5049420;28;20052;-68
2021/03/04 06:25:45;;;;;;;27.95;15.25;;;;;;;10.37;40.24;101685.56;5047584;28;22049;-68
2021/03/04 06:28:14;;;;;;;26.80;16.35;;;;;;;10.35;39.97;101707.56;5050345;28;20044;-68
2021/03/04 06:30:42;;;;;;;32.05;18.80;;;;;;;10.33;39.76;101712.25;5052186;28;21246;-68
2021/03/04 06:33:12;;;;;;;33.13;18.00;;;;;;;10.32;39.91;101718.72;5056651;28;20049;-69
2021/03/04 06:35:42;;;;;;;45.03;21.33;;;;;;;10.28;39.90;101714.47;5057759;28;20048;-68
2021/03/04 06:38:15;;;;;;;43.42;20.60;;;;;;;10.25;40.01;101709.19;5054552;28;20041;-68
2021/03/04 06:40:42;;;;;;;;;;;;;;;9.95;40.50;101703.19;5056411;28;20048;-68
2021/03/04 06:43:18;;;;;;;37.92;17.60;;;;;;;10.14;40.31;101700.88;5070781;28;19929;-69
2021/03/04 06:45:47;;;;;;;38.83;19.27;;;;;;;10.11;39.97;101707.47;5053918;28;20090;-70
2021/03/04 06:48:21;;;;;;;41.72;21.02;;;;;;;10.09;40.09;101709.41;5052245;28;20044;-70
2021/03/04 06:50:50;;;;;;;38.60;18.15;;;;;;;10.05;40.21;101702.41;5055701;28;20052;-88
2021/03/04 06:53:19;;;;;;;38.95;19.00;;;;;;;10.04;40.56;101694.34;5066317;28;20056;-81
2021/03/04 06:55:48;;;;;;;39.35;19.35;;;;;;;10.01;40.58;101689.06;5060845;28;20037;-81
2021/03/04 06:58:24;;;;;;;37.03;18.08;;;;;;;10.00;41.15;101688.19;5062265;28;20561;-79
2021/03/04 07:01:08;;;;;;;39.85;18.05;;;;;;;9.97;41.34;101693.88;5049223;28;20523;-79
2021/03/04 07:03:42;;;;;;;39.50;18.58;;;;;;;9.95;41.07;101690.41;5062151;28;20044;-81
2021/03/04 07:06:29;;;;;;;;;;;;;;;9.66;41.42;101686.03;5085221;28;20040;-84
2021/03/04 07:08:57;;;;;;;38.45;16.48;;;;;;;9.87;40.78;101676.41;5086518;28;19927;-85
2021/03/04 07:11:26;;;;;;;40.60;18.15;;;;;;;9.88;40.85;101669.91;5086014;28;20468;-81
2021/03/04 07:13:56;;;;;;;37.95;17.92;;;;;;;9.88;40.84;101669.91;5083082;28;20047;-83
2021/03/04 07:16:25;;;;;;;32.30;15.18;;;;;;;9.82;40.96;101659.44;5063360;28;20044;-85
2021/03/04 07:18:54;;;;;;;44.25;20.08;;;;;;;9.79;40.66;101648.72;5051325;28;20085;-83
2021/03/04 07:21:24;;;;;;;42.85;20.88;;;;;;;9.75;40.90;101648.06;5081966;28;20047;-79
2021/03/04 07:23:52;;;;;;;39.88;19.17;;;;;;;9.71;40.91;101643.78;5066795;28;20155;-77
2021/03/04 07:26:21;;;;;;;37.90;19.00;;;;;;;9.69;41.02;101642.16;5080087;28;20047;-82
2021/03/04 07:28:53;;;;;;;38.05;17.60;;;;;;;9.62;41.13;101638.97;5086417;28;20052;-82
2021/03/04 07:31:20;;;;;;;44.65;21.77;;;;;;;9.56;41.28;101636.63;5081250;28;20043;-82
2021/03/04 07:33:51;;;;;;;44.25;19.25;;;;;;;9.55;41.17;101648.53;5072562;28;20068;-77
2021/03/04 07:36:20;;;;;;;47.15;21.52;;;;;;;9.47;41.26;101645.47;5073206;28;20040;-79
2021/03/04 07:38:54;;;;;;;35.15;17.40;;;;;;;9.44;41.99;101645.69;5078036;28;20059;-77
2021/03/04 07:41:22;;;;;;;39.15;19.25;;;;;;;9.37;41.47;101653.44;5057566;28;20083;-78
2021/03/04 07:44:11;;;;;;;35.22;15.85;;;;;;;9.30;41.49;101653.97;5082756;28;20040;-82
2021/03/04 07:46:51;;;;;;;35.17;17.33;;;;;;;9.28;41.79;101645.00;5060774;28;20094;-77
2021/03/04 07:49:32;;;;;;;33.47;15.70;;;;;;;9.26;42.90;101620.53;5056617;28;20131;-84
2021/03/04 07:52:08;;;;;;;35.63;17.60;;;;;;;9.22;42.78;101597.13;5060736;28;20627;-80
2021/03/04 07:54:38;;;;;;;39.55;19.05;;;;;;;9.17;41.72;101580.22;5069198;28;20048;-80
2021/03/04 07:57:10;;;;;;;42.42;19.73;;;;;;;9.16;42.63;101570.25;5069767;28;20094;-84
2021/03/04 07:59:59;;;;;;;45.60;20.58;;;;;;;9.08;42.05;101566.31;5075728;28;20098;-78
2021/03/04 08:02:37;;;;;;;38.60;18.88;;;;;;;9.05;41.91;101586.53;5067532;28;20136;-77
2021/03/04 08:05:10;;;;;;;36.17;16.70;;;;;;;9.03;42.80;101595.78;5080858;28;20487;-77
2021/03/04 08:07:43;;;;;;;34.90;16.63;;;;;;;8.96;42.13;101615.31;5079110;28;20054;-75
2021/03/04 08:10:12;;;;;;;33.42;15.52;;;;;;;8.95;42.56;101627.22;5061357;28;20153;-77
2021/03/04 08:12:49;;;;;;;43.53;18.38;;;;;;;8.94;43.42;101640.94;5074335;28;20055;-76
2021/03/04 08:15:18;;;;;;;35.90;15.18;;;;;;;8.91;42.68;101632.97;5076398;28;20051;-77
2021/03/04 08:17:49;;;;;;;31.23;14.27;;;;;;;8.87;42.75;101626.84;5054396;28;20092;-77
2021/03/04 08:20:18;;;;;;;30.05;13.95;;;;;;;8.89;42.63;101619.41;5077295;28;20048;-76
2021/03/04 08:22:49;;;;;;;26.92;13.43;;;;;;;8.90;42.84;101615.72;5056752;28;20463;-76
2021/03/04 08:25:24;;;;;;;25.55;13.25;;;;;;;8.93;43.80;101626.44;5058486;28;20041;-77
2021/03/04 08:27:59;;;;;;;24.92;12.98;;;;;;;8.92;43.33;101631.97;5087509;28;20039;-80
2021/03/04 08:30:28;;;;;;;19.73;11.13;;;;;;;8.94;42.94;101640.94;5065888;28;20129;-77
2021/03/04 08:32:59;;;;;;;22.63;11.63;;;;;;;8.95;43.15;101649.03;5081330;28;20416;-76
2021/03/04 08:35:28;;;;;;;21.08;10.88;;;;;;;8.95;43.20;101657.22;5050291;28;20056;-78
2021/03/04 08:37:57;;;;;;;21.73;11.88;;;;;;;8.97;43.24;101647.06;5068272;28;20036;-77
2021/03/04 08:40:28;;;;;;;17.15;10.02;;;;;;;9.00;43.74;101652.31;5077985;28;20491;-82
2021/03/04 08:42:55;;;;;;;17.70;9.23;;;;;;;8.99;43.31;101646.97;5085538;28;20077;-78
2021/03/04 08:45:45;;;;;;;17.25;9.48;;;;;;;9.00;43.29;101649.59;5092867;28;20494;-81
2021/03/04 08:48:33;;;;;;;16.83;9.63;;;;;;;9.00;43.31;101643.25;5090465;28;20560;-78
2021/03/04 08:51:21;;;;;;;14.30;8.68;;;;;;;9.01;43.06;101645.00;5096389;28;20452;-80
2021/03/04 08:54:02;;;;;;;13.40;8.20;;;;;;;9.02;43.31;101638.56;5084796;28;20048;-76
2021/03/04 08:56:32;;;;;;;13.70;7.97;;;;;;;9.03;43.33;101629.41;5080794;28;20048;-76
2021/03/04 08:59:04;;;;;;;16.55;9.05;;;;;;;9.06;43.75;101626.47;5076650;28;20052;-74
2021/03/04 09:01:33;;;;;;;13.43;8.73;;;;;;;9.06;43.40;101621.00;5080836;28;20046;-76
2021/03/04 09:04:04;;;;;;;14.93;9.43;;;;;;;9.06;43.48;101621.00;5077083;28;20031;-79
2021/03/04 09:06:49;;;;;;;14.30;8.30;;;;;;;9.08;44.30;101613.59;5067753;28;20039;-80
2021/03/04 09:10:20;;;;;;;16.63;9.40;;;;;;;9.04;44.41;101609.34;5068670;28;21439;-78
2021/03/04 09:15:42;;;;;;;17.38;9.60;;;;;;;9.01;43.36;101615.00;5075881;28;20061;-84
2021/03/04 09:18:15;;;;;;;17.13;9.50;;;;;;;9.04;43.66;101620.25;5088000;28;20056;-81
2021/03/04 09:20:54;;;;;;;19.23;10.70;;;;;;;9.04;44.00;101617.53;5055371;28;20047;-80
2021/03/04 09:23:23;;;;;;;19.00;11.13;;;;;;;9.00;43.57;101625.03;5063548;28;20368;-79
2021/03/04 09:26:14;;;;;;;17.85;10.35;;;;;;;9.03;44.08;101626.69;5076909;28;20040;-79
2021/03/04 09:29:01;;;;;;;19.55;10.68;;;;;;;9.01;43.51;101623.19;5092102;28;20455;-80
2021/03/04 09:31:50;;;;;;;16.05;10.02;;;;;;;9.03;43.68;101612.16;5091394;28;20048;-76
2021/03/04 09:34:39;;;;;;;17.05;9.68;;;;;;;9.04;43.70;101611.19;5095909;28;20043;-78
2021/03/04 09:37:30;;;;;;;18.73;9.43;;;;;;;9.05;44.00;101613.81;5091801;28;20048;-78
2021/03/04 09:40:25;;;;;;;14.70;8.68;;;;;;;9.09;44.47;101622.66;5092405;28;20071;-80
2021/03/04 09:43:17;;;;;;;15.57;8.95;;;;;;;9.06;44.35;101626.47;5093148;28;20097;-77
2021/03/04 09:46:04;;;;;;;14.98;8.38;;;;;;;9.06;43.82;101620.13;5094993;28;20035;-77
2021/03/04 09:48:51;;;;;;;12.48;7.60;;;;;;;9.05;43.76;101605.63;5098010;28;20094;-77
2021/03/04 09:51:41;;;;;;;13.57;7.85;;;;;;;9.07;43.93;101613.69;5097973;28;20040;-78
2021/03/04 09:54:31;;;;;;;17.65;9.27;;;;;;;9.08;43.99;101631.81;5088581;28;20056;-76
2021/03/04 09:57:22;;;;;;;13.88;8.02;;;;;;;9.06;43.97;101629.19;5088895;28;20036;-77
2021/03/04 10:00:20;;;;;;;14.18;8.30;;;;;;;9.10;44.78;101622.56;5097929;28;20466;-77
2021/03/04 10:03:09;;;;;;;12.38;7.28;;;;;;;9.09;43.90;101614.47;5092690;28;20056;-78
2021/03/04 10:05:57;;;;;;;13.07;7.85;;;;;;;9.09;44.08;101604.44;5090507;28;20059;-79
2021/03/04 10:08:45;;;;;;;14.52;7.72;;;;;;;9.11;44.09;101613.41;5070129;28;20038;-78
2021/03/04 10:11:33;;;;;;;13.05;7.32;;;;;;;9.12;44.04;101615.16;5078453;28;20131;-78
2021/03/04 10:14:20;;;;;;;16.00;8.27;;;;;;;9.10;44.01;101614.38;5090976;28;20487;-78
2021/03/04 10:17:07;;;;;;;18.67;10.43;;;;;;;9.13;44.07;101611.44;5094887;28;20567;-77
2021/03/04 10:19:55;;;;;;;17.35;9.43;;;;;;;9.13;44.04;101608.72;5094538;28;20048;-74
2021/03/04 10:22:42;;;;;;;20.50;10.48;;;;;;;9.13;43.95;101603.25;5106557;28;20178;-76
2021/03/04 10:25:35;;;;;;;16.30;9.55;;;;;;;9.14;44.02;101606.81;5102872;28;20529;-77
2021/03/04 10:28:24;;;;;;;19.38;10.63;;;;;;;9.14;43.94;101612.28;5076119;28;20563;-74
2021/03/04 10:31:11;;;;;;;18.60;10.25;;;;;;;9.14;44.39;101618.63;5094102;28;20074;-72
2021/03/04 10:33:59;;;;;;;18.20;9.95;;;;;;;9.14;44.14;101606.81;5112401;28;20032;-73
2021/03/04 10:36:46;;;;;;;18.25;10.35;;;;;;;9.15;44.25;101604.00;5099447;28;20068;-74
2021/03/04 10:39:33;;;;;;;19.67;10.68;;;;;;;9.14;44.12;101594.06;5098350;28;20126;-78
2021/03/04 10:42:21;;;;;;;25.52;13.40;;;;;;;9.14;43.85;101585.88;5110374;28;20052;-77
2021/03/04 10:44:48;;;;;;;20.98;12.23;;;;;;;9.13;43.76;101588.72;5087641;28;20052;-76
2021/03/04 10:47:17;;;;;;;20.05;11.07;;;;;;;9.11;43.76;101591.56;5095695;28;20052;-78
2021/03/04 10:49:46;;;;;;;19.17;11.57;;;;;;;9.10;44.17;101598.00;5095358;28;20488;-78
2021/03/04 10:52:14;;;;;;;19.27;11.98;;;;;;;9.08;43.90;101604.53;5096566;28;20127;-75
2021/03/04 10:54:42;;;;;;;18.58;10.20;;;;;;;9.07;44.04;101608.22;5091412;28;20062;-78
2021/03/04 10:57:36;;;;;;;18.38;9.85;;;;;;;9.03;44.71;101613.03;5098931;28;20554;-77
2021/03/04 11:00:26;;;;;;;17.23;9.88;;;;;;;9.02;44.69;101611.28;5082370;28;20055;-76
2021/03/04 11:02:55;;;;;;;17.97;9.93;;;;;;;8.99;44.19;101611.47;5086212;28;20053;-75
2021/03/04 11:05:23;;;;;;;17.73;10.40;;;;;;;9.04;44.21;101608.47;5094845;28;20078;-76
2021/03/04 11:07:53;;;;;;;16.52;9.88;;;;;;;9.05;44.71;101613.81;5071510;28;20089;-74
2021/03/04 11:10:20;;;;;;;19.73;11.27;;;;;;;9.03;44.34;101613.03;5092027;28;20036;-74
2021/03/04 11:12:51;;;;;;;21.63;12.00;;;;;;;9.05;44.39;101616.56;5102734;28;20043;-75
2021/03/04 11:15:19;;;;;;;21.27;10.98;;;;;;;9.05;44.38;101613.81;5094858;28;20074;-75
2021/03/04 11:18:10;;;;;;;22.48;12.65;;;;;;;9.05;44.32;101610.22;5087010;28;20121;-74
2021/03/04 11:20:47;;;;;;;23.67;12.73;;;;;;;9.06;44.24;101610.09;5088353;28;20036;-74
2021/03/04 11:23:35;;;;;;;25.05;13.38;;;;;;;9.06;44.41;101609.22;5088025;28;20392;-75
2021/03/04 11:26:04;;;;;;;27.98;13.57;;;;;;;9.08;44.46;101607.25;5099347;28;20036;-75
2021/03/04 11:28:42;;;;;;;25.38;13.30;;;;;;;9.08;44.31;101607.25;5082341;28;20033;-74
2021/03/04 11:31:09;;;;;;;28.05;14.40;;;;;;;9.08;44.36;101605.41;5095442;28;20043;-75
2021/03/04 11:33:57;;;;;;;29.35;13.68;;;;;;;9.08;44.37;101605.41;5084104;28;20411;-76
2021/03/04 11:36:44;;;;;;;28.42;12.70;;;;;;;9.09;44.42;101604.44;5101658;28;20138;-77
2021/03/04 11:39:33;;;;;;;30.52;13.52;;;;;;;9.10;44.24;101600.72;5079761;28;20046;-77
2021/03/04 11:42:20;;;;;;;28.58;13.63;;;;;;;9.09;44.42;101601.69;5099839;28;20072;-77
2021/03/04 11:45:10;;;;;;;28.10;13.27;;;;;;;9.11;44.45;101596.13;5095363;28;20411;-75
2021/03/04 11:47:57;;;;;;;23.92;11.52;;;;;;;9.09;44.65;101589.91;5099470;28;20076;-76
2021/03/04 11:50:44;;;;;;;28.27;13.63;;;;;;;9.09;44.49;101588.06;5090056;28;20046;-77
2021/03/04 11:53:31;;;;;;;26.40;12.80;;;;;;;9.09;44.46;101588.06;5086758;28;20040;-77
2021/03/04 11:56:38;;;;;;;25.20;11.35;;;;;;;9.10;44.57;101587.06;5086033;28;20060;-77
2021/03/04 11:59:25;;;;;;;23.52;11.15;;;;;;;9.09;44.31;101587.19;5083518;28;20036;-80
2021/03/04 12:02:13;;;;;;;16.42;8.52;;;;;;;9.10;44.52;101583.47;5078340;28;20044;-76
2021/03/04 12:05:01;;;;;;;16.92;8.60;;;;;;;9.07;44.38;101578.22;5091048;28;20400;-79